createdAt,value
2019-04-21T00:01:05.712Z,4.53
2019-04-21T00:03:38.422Z,3.70
2019-04-21T00:06:23.682Z,4.00
2019-04-21T00:09:00.860Z,3.80
2019-04-21T00:11:22.520Z,3.87
2019-04-21T00:13:51.488Z,3.97
2019-04-21T00:16:07.581Z,4.00
2019-04-21T00:18:48.464Z,4.47
2019-04-21T00:21:21.156Z,3.67
2019-04-21T00:23:56.047Z,4.20
2019-04-21T00:26:32.113Z,4.00
2019-04-21T00:29:03.674Z,3.80
2019-04-21T00:31:32.283Z,4.50
2019-04-21T00:33:46.084Z,3.80
2019-04-21T00:36:18.565Z,4.17
2019-04-21T00:39:15.551Z,4.23
2019-04-21T00:41:38.093Z,4.13
2019-04-21T00:43:59.856Z,4.33
2019-04-21T00:46:33.694Z,4.23
2019-04-21T00:49:02.070Z,4.10
2019-04-21T00:51:49.828Z,3.97
2019-04-21T00:54:27.498Z,4.07
2019-04-21T00:56:50.035Z,4.07
2019-04-21T00:59:19.362Z,4.30
2019-04-21T01:01:47.951Z,4.47
2019-04-21T01:04:16.818Z,3.97
2019-04-21T01:06:48.079Z,4.20
2019-04-21T01:09:13.596Z,3.93
2019-04-21T01:11:49.482Z,3.43
2019-04-21T01:14:32.766Z,3.30
2019-04-21T01:16:51.345Z,3.97
2019-04-21T01:19:16.661Z,3.90
2019-04-21T01:21:31.195Z,3.83
2019-04-21T01:24:07.832Z,4.30
2019-04-21T01:26:43.013Z,3.97
2019-04-21T01:29:15.533Z,4.13
2019-04-21T01:31:51.175Z,3.27
2019-04-21T01:34:20.583Z,3.73
2019-04-21T01:36:52.054Z,4.00
2019-04-21T01:39:27.479Z,3.67
2019-04-21T01:41:57.418Z,4.23
2019-04-21T01:44:29.893Z,3.90
2019-04-21T01:46:52.011Z,3.97
2019-04-21T01:49:19.212Z,3.60
2019-04-21T01:52:17.837Z,3.90
2019-04-21T01:55:04.905Z,4.37
2019-04-21T01:57:22.715Z,3.73
2019-04-21T01:59:54.268Z,3.43
2019-04-21T02:02:29.280Z,4.33
2019-04-21T02:05:03.443Z,3.53
2019-04-21T02:07:34.560Z,3.60
2019-04-21T02:10:05.168Z,3.60
2019-04-21T02:12:34.586Z,3.50
2019-04-21T02:15:06.326Z,3.57
2019-04-21T02:17:29.506Z,4.13
2019-04-21T02:19:56.390Z,3.67
2019-04-21T02:22:47.837Z,2.97
2019-04-21T02:25:08.335Z,4.00
2019-04-21T02:27:36.483Z,3.70
2019-04-21T02:30:14.213Z,3.50
2019-04-21T02:32:53.833Z,3.37
2019-04-21T02:35:30.222Z,3.00
2019-04-21T02:37:54.806Z,3.63
2019-04-21T02:40:25.571Z,3.40
2019-04-21T02:42:59.471Z,3.67
2019-04-21T02:47:53.438Z,3.20
2019-04-21T02:50:28.404Z,3.53
2019-04-21T02:57:59.579Z,3.57
2019-04-21T03:03:14.092Z,4.43
2019-04-21T03:05:58.767Z,4.30
2019-04-21T03:08:33.960Z,3.70
2019-04-21T03:10:59.255Z,4.67
2019-04-21T03:13:33.596Z,3.17
2019-04-21T03:18:32.726Z,3.73
2019-04-21T03:23:29.707Z,4.10
2019-04-21T03:28:49.510Z,4.13
2019-04-21T03:31:19.750Z,4.00
2019-04-21T03:36:37.168Z,3.73
2019-04-21T03:38:41.042Z,3.57
2019-04-21T03:41:04.628Z,4.27
2019-04-21T03:43:34.919Z,5.17
2019-04-21T03:46:02.130Z,4.47
2019-04-21T03:48:35.650Z,4.10
2019-04-21T03:51:04.783Z,4.43
2019-04-21T03:53:38.343Z,4.30
2019-04-21T03:56:04.118Z,4.13
2019-04-21T03:58:47.359Z,4.13
2019-04-21T04:01:32.873Z,4.67
2019-04-21T04:04:15.457Z,4.33
2019-04-21T04:06:34.031Z,4.53
2019-04-21T04:09:19.556Z,4.30
2019-04-21T04:11:58.387Z,4.90
2019-04-21T04:16:59.036Z,4.73
2019-04-21T04:19:26.407Z,4.60
2019-04-21T04:21:56.394Z,4.80
2019-04-21T04:24:24.405Z,4.77
2019-04-21T04:26:59.512Z,4.47
2019-04-21T04:29:20.381Z,4.40
2019-04-21T04:31:42.733Z,4.33
2019-04-21T04:34:21.834Z,4.50
2019-04-21T04:37:12.430Z,4.93
2019-04-21T04:42:12.763Z,4.90
2019-04-21T04:44:46.432Z,5.50
2019-04-21T04:47:12.192Z,5.13
2019-04-21T04:49:46.774Z,4.73
2019-04-21T04:52:24.104Z,4.67
2019-04-21T04:54:49.116Z,5.03
2019-04-21T04:57:14.493Z,5.23
2019-04-21T04:59:43.055Z,5.53
2019-04-21T05:02:30.427Z,5.27
2019-04-21T05:04:46.234Z,4.93
2019-04-21T05:09:42.774Z,4.93
2019-04-21T05:12:01.686Z,4.23
2019-04-21T05:14:39.531Z,5.17
2019-04-21T05:17:14.268Z,5.30
2019-04-21T05:19:42.564Z,4.63
2019-04-21T05:22:17.200Z,5.23
2019-04-21T05:24:31.789Z,5.40
2019-04-21T05:27:00.758Z,5.40
2019-04-21T05:29:38.802Z,5.57
2019-04-21T05:32:21.939Z,5.53
2019-04-21T05:34:41.237Z,4.40
2019-04-21T05:37:23.250Z,4.87
2019-04-21T05:39:50.831Z,4.83
2019-04-21T05:42:15.343Z,4.93
2019-04-21T05:45:04.284Z,4.63
2019-04-21T05:47:33.271Z,4.50
2019-04-21T05:50:03.184Z,4.83
2019-04-21T05:52:27.529Z,4.20
2019-04-21T05:55:00.950Z,4.50
2019-04-21T05:57:36.004Z,5.07
2019-04-21T05:59:59.450Z,5.13
2019-04-21T06:02:36.916Z,5.43
2019-04-21T06:07:34.864Z,5.13
2019-04-21T06:10:06.537Z,6.00
2019-04-21T06:12:43.095Z,5.80
2019-04-21T06:15:07.992Z,5.60
2019-04-21T06:17:44.630Z,5.03
2019-04-21T06:20:12.345Z,6.03
2019-04-21T06:22:39.710Z,6.23
2019-04-21T06:27:57.475Z,5.23
2019-04-21T06:30:11.827Z,6.17
2019-04-21T06:32:52.626Z,6.13
2019-04-21T06:35:42.898Z,6.30
2019-04-21T06:38:04.674Z,6.13
2019-04-21T06:40:38.969Z,6.83
2019-04-21T06:43:11.330Z,6.23
2019-04-21T06:45:37.737Z,6.70
2019-04-21T06:48:05.474Z,6.43
2019-04-21T06:50:39.879Z,6.53
2019-04-21T06:53:06.105Z,6.70
2019-04-21T06:55:32.085Z,6.73
2019-04-21T06:58:06.651Z,5.33
2019-04-21T07:00:38.843Z,5.60
2019-04-21T07:03:15.554Z,6.40
2019-04-21T07:05:41.300Z,4.97
2019-04-21T07:08:23.324Z,6.27
2019-04-21T07:10:37.458Z,5.37
2019-04-21T07:13:09.321Z,4.97
2019-04-21T07:15:43.656Z,5.53
2019-04-21T07:18:12.577Z,5.73
2019-04-21T07:20:51.837Z,4.67
2019-04-21T07:23:16.254Z,4.80
2019-04-21T07:25:48.302Z,5.13
2019-04-21T07:28:19.037Z,4.83
2019-04-21T07:30:57.575Z,5.50
2019-04-21T07:33:41.233Z,4.20
2019-04-21T07:35:54.070Z,4.53
2019-04-21T07:38:19.580Z,4.47
2019-04-21T07:40:42.635Z,4.30
2019-04-21T07:43:12.191Z,4.83
2019-04-21T07:45:45.930Z,4.57
2019-04-21T07:48:24.932Z,4.73
2019-04-21T07:51:04.417Z,4.80
2019-04-21T07:53:40.647Z,4.73
2019-04-21T07:55:50.982Z,4.30
2019-04-21T07:58:50.187Z,4.37
2019-04-21T08:01:12.223Z,4.03
2019-04-21T08:03:42.028Z,3.40
2019-04-21T08:06:18.734Z,3.70
2019-04-21T08:08:34.306Z,4.20
2019-04-21T08:11:09.122Z,4.10
2019-04-21T08:16:12.792Z,3.50
2019-04-21T08:18:39.976Z,3.47
2019-04-21T08:21:15.451Z,4.27
2019-04-21T08:23:41.480Z,4.03
2019-04-21T08:26:09.247Z,4.40
2019-04-21T08:28:49.357Z,3.93
2019-04-21T08:31:14.683Z,4.10
2019-04-21T08:33:51.436Z,4.03
2019-04-21T08:36:25.449Z,3.37
2019-04-21T08:38:51.549Z,3.67
2019-04-21T08:41:12.258Z,3.83
2019-04-21T08:43:45.639Z,3.50
2019-04-21T08:46:22.197Z,4.53
2019-04-21T08:48:49.465Z,4.03
2019-04-21T08:56:36.852Z,3.50
2019-04-21T08:59:37.632Z,3.80
2019-04-21T09:01:47.433Z,3.87
2019-04-21T09:04:26.149Z,4.13
2019-04-21T09:09:25.871Z,3.63
2019-04-21T09:11:54.287Z,3.67
2019-04-21T09:14:24.192Z,3.67
2019-04-21T09:16:52.837Z,3.60
2019-04-21T09:19:35.278Z,3.40
2019-04-21T09:21:54.934Z,4.27
2019-04-21T09:24:42.922Z,3.80
2019-04-21T09:26:55.672Z,3.50
2019-04-21T09:29:19.488Z,3.57
2019-04-21T09:31:41.827Z,4.20
2019-04-21T09:34:10.103Z,4.23
2019-04-21T09:36:44.670Z,3.47
2019-04-21T09:39:16.565Z,4.23
2019-04-21T09:41:42.770Z,3.90
2019-04-21T09:44:19.995Z,3.60
2019-04-21T09:46:49.774Z,3.73
2019-04-21T09:49:18.667Z,3.80
2019-04-21T09:51:43.769Z,4.00
2019-04-21T09:54:20.485Z,4.57
2019-04-21T09:56:52.366Z,4.33
2019-04-21T09:59:23.042Z,3.90
2019-04-21T10:01:57.493Z,3.87
2019-04-21T10:04:14.498Z,3.67
2019-04-21T10:06:43.321Z,3.47
2019-04-21T10:09:14.929Z,3.67
2019-04-21T10:11:43.834Z,3.50
2019-04-21T10:14:13.521Z,3.00
2019-04-21T10:16:51.589Z,3.47
2019-04-21T10:19:21.104Z,3.30
2019-04-21T10:21:50.186Z,2.97
2019-04-21T10:24:20.119Z,3.63
2019-04-21T10:26:49.397Z,3.27
2019-04-21T10:29:24.505Z,3.40
2019-04-21T10:31:48.733Z,3.67
2019-04-21T10:34:17.541Z,2.97
2019-04-21T10:36:47.045Z,2.90
2019-04-21T10:39:15.919Z,3.27
2019-04-21T10:41:45.807Z,4.37
2019-04-21T10:44:14.643Z,3.43
2019-04-21T10:46:46.687Z,3.60
2019-04-21T10:49:14.803Z,3.43
2019-04-21T10:51:43.766Z,3.03
2019-04-21T10:54:13.644Z,3.40
2019-04-21T10:56:44.479Z,3.40
2019-04-21T10:59:14.222Z,3.87
2019-04-21T11:01:43.332Z,3.00
2019-04-21T11:04:20.074Z,3.23
2019-04-21T11:06:44.296Z,3.70
2019-04-21T11:09:13.891Z,3.33
2019-04-21T11:11:44.988Z,3.30
2019-04-21T11:14:13.608Z,3.07
2019-04-21T11:16:43.320Z,3.40
2019-04-21T11:19:13.740Z,3.20
2019-04-21T11:21:42.920Z,3.17
2019-04-21T11:24:12.279Z,3.27
2019-04-21T11:26:42.206Z,3.20
2019-04-21T11:29:11.169Z,3.13
2019-04-21T11:31:41.029Z,2.63
2019-04-21T11:34:11.222Z,3.10
2019-04-21T11:36:40.417Z,3.30
2019-04-21T11:39:21.990Z,2.83
2019-04-21T11:41:41.675Z,3.30
2019-04-21T11:44:12.023Z,3.10
2019-04-21T11:46:42.487Z,2.87
2019-04-21T11:49:12.578Z,2.67
2019-04-21T11:51:42.701Z,3.03
2019-04-21T11:54:12.914Z,3.10
2019-04-21T11:56:43.102Z,3.60
2019-04-21T11:59:12.203Z,3.20
2019-04-21T12:01:41.483Z,2.70
2019-04-21T12:04:11.646Z,3.50
2019-04-21T12:06:44.501Z,2.90
2019-04-21T12:09:11.768Z,2.97
2019-04-21T12:11:41.115Z,2.80
2019-04-21T12:14:10.135Z,3.20
2019-04-21T12:16:39.212Z,2.70
2019-04-21T12:19:09.195Z,3.67
2019-04-21T12:21:49.155Z,3.00
2019-04-21T12:24:09.203Z,3.00
2019-04-21T12:26:40.070Z,3.30
2019-04-21T12:29:10.058Z,3.10
2019-04-21T12:31:41.412Z,3.37
2019-04-21T12:34:12.105Z,2.97
2019-04-21T12:36:42.091Z,3.70
2019-04-21T12:39:12.806Z,2.53
2019-04-21T12:41:42.625Z,2.93
2019-04-21T12:44:12.810Z,2.77
2019-04-21T12:46:41.661Z,3.30
2019-04-21T12:49:11.732Z,3.10
2019-04-21T12:51:41.848Z,2.83
2019-04-21T12:54:11.992Z,2.90
2019-04-21T12:56:41.232Z,3.00
2019-04-21T12:59:10.348Z,3.30
2019-04-21T13:01:39.231Z,2.90
2019-04-21T13:04:08.203Z,3.20
2019-04-21T13:06:37.341Z,2.50
2019-04-21T13:09:10.503Z,3.03
2019-04-21T13:11:37.765Z,2.80
2019-04-21T13:14:06.590Z,2.80
2019-04-21T13:16:35.509Z,2.90
2019-04-21T13:19:05.052Z,2.53
2019-04-21T13:21:34.245Z,2.33
2019-04-21T13:24:03.211Z,2.50
2019-04-21T13:26:39.437Z,2.27
2019-04-21T13:29:02.675Z,2.23
2019-04-21T13:31:32.040Z,2.77
2019-04-21T13:34:02.146Z,2.67
2019-04-21T13:36:31.789Z,2.90
2019-04-21T13:39:45.822Z,2.53
2019-04-21T13:41:57.043Z,2.33
2019-04-21T13:44:17.700Z,2.73
2019-04-21T13:46:47.334Z,2.30
2019-04-21T13:49:17.220Z,2.53
2019-04-21T13:51:47.843Z,2.20
2019-04-21T13:54:17.994Z,2.13
2019-04-21T13:56:47.010Z,2.30
2019-04-21T13:59:16.054Z,2.33
2019-04-21T14:01:45.688Z,1.97
2019-04-21T14:04:15.907Z,2.57
2019-04-21T14:06:44.806Z,2.33
2019-04-21T14:09:13.909Z,2.47
2019-04-21T14:11:43.473Z,2.13
2019-04-21T14:14:12.612Z,2.53
2019-04-21T14:16:42.327Z,2.30
2019-04-21T14:19:11.283Z,2.17
2019-04-21T14:21:41.175Z,2.60
2019-04-21T14:24:10.870Z,2.03
2019-04-21T14:26:40.412Z,2.20
2019-04-21T14:29:11.091Z,2.20
2019-04-21T14:31:40.243Z,2.50
2019-04-21T14:34:10.065Z,2.23
2019-04-21T14:36:39.092Z,2.60
2019-04-21T14:39:10.513Z,2.40
2019-04-21T14:41:40.298Z,2.27
2019-04-21T14:44:09.295Z,2.40
2019-04-21T14:46:39.737Z,2.17
2019-04-21T14:49:13.147Z,2.40
2019-04-21T14:51:47.463Z,2.23
2019-04-21T14:54:30.977Z,2.90
2019-04-21T14:57:00.908Z,2.47
2019-04-21T14:59:31.015Z,1.90
2019-04-21T15:02:00.038Z,2.23
2019-04-21T15:04:28.909Z,2.00
2019-04-21T15:06:59.196Z,1.73
2019-04-21T15:09:29.258Z,1.83
2019-04-21T15:11:58.390Z,1.83
2019-04-21T15:14:27.251Z,2.10
2019-04-21T15:16:56.851Z,2.10
2019-04-21T15:19:26.623Z,1.90
2019-04-21T15:21:56.701Z,2.07
2019-04-21T15:24:26.652Z,2.67
2019-04-21T15:26:56.923Z,1.87
2019-04-21T15:29:26.776Z,1.90
2019-04-21T15:31:56.796Z,1.80
2019-04-21T15:34:27.252Z,1.90
2019-04-21T15:36:57.844Z,2.17
2019-04-21T15:39:27.888Z,2.00
2019-04-21T15:41:58.464Z,2.00
2019-04-21T15:44:27.713Z,1.80
2019-04-21T15:46:57.652Z,1.50
2019-04-21T15:49:39.109Z,1.60
2019-04-21T15:52:00.067Z,2.30
2019-04-21T15:54:29.072Z,1.60
2019-04-21T15:57:00.697Z,2.00
2019-04-21T15:59:34.677Z,1.80
2019-04-21T16:02:22.346Z,1.90
2019-04-21T16:04:52.649Z,2.67
2019-04-21T16:07:22.333Z,2.67
2019-04-21T16:09:52.376Z,1.87
2019-04-21T16:12:22.080Z,1.57
2019-04-21T16:14:52.404Z,1.80
2019-04-21T16:17:21.421Z,2.13
2019-04-21T16:19:50.247Z,2.27
2019-04-21T16:22:19.113Z,1.90
2019-04-21T16:24:47.935Z,2.07
2019-04-21T16:27:17.422Z,2.60
2019-04-21T16:29:47.841Z,1.80
2019-04-21T16:32:19.369Z,2.17
2019-04-21T16:34:54.267Z,1.97
2019-04-21T16:37:17.697Z,2.17
2019-04-21T16:39:47.430Z,1.93
2019-04-21T16:42:16.297Z,1.80
2019-04-21T16:44:45.114Z,2.53
2019-04-21T16:47:13.990Z,1.70
2019-04-21T16:49:43.621Z,2.40
2019-04-21T16:52:20.466Z,2.50
2019-04-21T16:54:58.208Z,2.50
2019-04-21T16:57:35.677Z,3.30
2019-04-21T17:00:08.743Z,3.00
2019-04-21T17:02:38.597Z,2.50
2019-04-21T17:05:07.752Z,2.40
2019-04-21T17:07:36.788Z,2.33
2019-04-21T17:10:06.517Z,2.03
2019-04-21T17:12:35.639Z,2.30
2019-04-21T17:15:21.067Z,2.17
2019-04-21T17:18:00.390Z,2.33
2019-04-21T17:20:19.343Z,3.60
2019-04-21T17:22:39.618Z,3.40
2019-04-21T17:25:10.573Z,5.67
2019-04-21T17:27:40.689Z,4.47
2019-04-21T17:30:12.641Z,4.33
2019-04-21T17:32:47.016Z,4.03
2019-04-21T17:35:12.432Z,3.80
2019-04-21T17:37:42.962Z,2.70
2019-04-21T17:40:13.425Z,2.00
2019-04-21T17:42:49.285Z,2.60
2019-04-21T17:45:13.273Z,2.53
2019-04-21T17:47:49.789Z,2.70
2019-04-21T17:50:21.696Z,3.23
2019-04-21T17:52:59.311Z,3.60
2019-04-21T17:55:29.803Z,3.10
2019-04-21T17:58:11.693Z,2.80
2019-04-21T18:01:09.263Z,2.83
2019-04-21T18:03:27.289Z,2.00
2019-04-21T18:05:47.475Z,2.00
2019-04-21T18:08:23.203Z,1.97
2019-04-21T18:10:45.514Z,1.97
2019-04-21T18:13:11.546Z,2.10
2019-04-21T18:15:51.552Z,1.97
2019-04-21T18:18:06.204Z,2.47
2019-04-21T18:20:43.972Z,2.27
2019-04-21T18:23:31.424Z,2.17
2019-04-21T18:25:57.877Z,1.60
2019-04-21T18:28:20.862Z,1.97
2019-04-21T18:30:58.341Z,2.60
2019-04-21T18:33:33.436Z,1.60
2019-04-21T18:36:05.092Z,2.30
2019-04-21T18:38:57.456Z,1.93
2019-04-21T18:41:08.035Z,3.13
2019-04-21T18:44:08.997Z,2.70
2019-04-21T18:46:52.596Z,2.70
2019-04-21T18:49:05.097Z,2.00
2019-04-21T18:52:01.290Z,2.37
2019-04-21T18:54:37.734Z,2.00
2019-04-21T18:57:06.822Z,2.20
2019-04-21T18:59:29.799Z,2.30
2019-04-21T19:01:59.715Z,2.50
2019-04-21T19:04:26.487Z,2.53
2019-04-21T19:07:07.883Z,2.40
2019-04-21T19:10:01.771Z,2.50
2019-04-21T19:12:16.798Z,2.40
2019-04-21T19:14:38.742Z,2.87
2019-04-21T19:17:42.661Z,3.13
2019-04-21T19:19:56.409Z,3.30
2019-04-21T19:22:15.716Z,4.67
2019-04-21T19:24:48.691Z,4.77
2019-04-21T19:27:19.251Z,3.73
2019-04-21T19:29:57.255Z,3.70
2019-04-21T19:32:19.911Z,3.03
2019-04-21T19:34:34.800Z,2.90
2019-04-21T19:37:08.927Z,3.10
2019-04-21T19:39:43.175Z,3.03
2019-04-21T19:42:14.452Z,2.50
2019-04-21T19:44:52.170Z,2.60
2019-04-21T19:47:25.808Z,2.50
2019-04-21T19:49:55.053Z,3.00
2019-04-21T19:52:11.338Z,2.70
2019-04-21T19:54:39.766Z,2.60
2019-04-21T19:57:06.969Z,2.90
2019-04-21T19:59:42.294Z,3.73
2019-04-21T20:02:06.920Z,2.27
2019-04-21T20:04:42.778Z,2.90
2019-04-21T20:07:23.270Z,2.90
2019-04-21T20:09:55.797Z,3.03
2019-04-21T20:12:33.257Z,3.27
2019-04-21T20:14:59.591Z,3.27
2019-04-21T20:17:17.658Z,3.40
2019-04-21T20:19:38.638Z,3.20
2019-04-21T20:22:07.402Z,3.23
2019-04-21T20:24:39.251Z,2.90
2019-04-21T20:27:15.046Z,2.77
2019-04-21T20:29:57.968Z,3.17
2019-04-21T20:32:35.195Z,3.27
2019-04-21T20:35:00.933Z,3.20
2019-04-21T20:37:26.489Z,2.87
2019-04-21T20:39:47.066Z,3.60
2019-04-21T20:42:21.127Z,3.07
2019-04-21T20:45:16.053Z,3.00
2019-04-21T20:47:22.768Z,3.40
2019-04-21T20:49:57.073Z,3.57
2019-04-21T20:52:35.357Z,3.43
2019-04-21T20:54:56.481Z,3.87
2019-04-21T20:57:26.318Z,3.00
2019-04-21T21:00:04.638Z,3.97
2019-04-21T21:02:28.458Z,3.80
2019-04-21T21:04:52.799Z,3.77
2019-04-21T21:07:40.427Z,4.20
2019-04-21T21:10:07.370Z,4.27
2019-04-21T21:12:46.756Z,4.03
2019-04-21T21:14:57.795Z,3.83
2019-04-21T21:17:45.450Z,3.90
2019-04-21T21:20:07.856Z,3.90
2019-04-21T21:22:35.222Z,3.73
2019-04-21T21:25:05.268Z,3.73
2019-04-21T21:27:31.917Z,3.70
2019-04-21T21:30:05.709Z,3.90
2019-04-21T21:32:37.050Z,4.00
2019-04-21T21:35:08.282Z,4.97
2019-04-21T21:37:43.965Z,4.43
2019-04-21T21:40:11.184Z,3.90
2019-04-21T21:42:27.546Z,4.67
2019-04-21T21:45:00.153Z,4.30
2019-04-21T21:47:39.447Z,4.00
2019-04-21T21:50:04.736Z,4.13
2019-04-21T21:52:42.437Z,4.43
2019-04-21T21:54:55.794Z,4.33
2019-04-21T21:57:26.076Z,4.40
2019-04-21T22:00:02.536Z,3.60
2019-04-21T22:02:34.955Z,4.23
2019-04-21T22:05:06.684Z,3.20
2019-04-21T22:07:29.866Z,3.70
2019-04-21T22:09:58.043Z,4.03
2019-04-21T22:12:34.335Z,3.27
2019-04-21T22:14:57.594Z,3.67
2019-04-21T22:17:38.941Z,3.10
2019-04-21T22:20:13.527Z,3.80
2019-04-21T22:22:39.038Z,3.87
2019-04-21T22:25:09.073Z,3.70
2019-04-21T22:27:28.802Z,3.83
2019-04-21T22:30:02.890Z,3.60
2019-04-21T22:32:30.648Z,3.97
2019-04-21T22:35:04.800Z,4.00
2019-04-21T22:37:41.639Z,4.07
2019-04-21T22:40:12.668Z,3.67
2019-04-21T22:42:34.749Z,3.60
2019-04-21T22:45:01.468Z,3.87
2019-04-21T22:47:34.212Z,3.60
2019-04-21T22:50:02.510Z,4.93
2019-04-21T22:52:32.338Z,4.10
2019-04-21T22:55:08.248Z,3.33
2019-04-21T22:57:39.857Z,3.70
2019-04-21T23:00:07.096Z,3.40
2019-04-21T23:02:35.755Z,3.57
2019-04-21T23:05:06.467Z,3.37
2019-04-21T23:07:41.457Z,3.20
2019-04-21T23:10:07.581Z,3.43
2019-04-21T23:12:39.895Z,3.37
2019-04-21T23:15:13.233Z,3.70
2019-04-21T23:18:00.544Z,3.53
2019-04-21T23:20:34.462Z,3.90
2019-04-21T23:23:07.811Z,4.57
2019-04-21T23:25:27.882Z,3.83
2019-04-21T23:27:59.064Z,3.37
2019-04-21T23:30:38.609Z,3.17
2019-04-21T23:32:51.384Z,3.37
2019-04-21T23:35:22.727Z,4.30
2019-04-21T23:37:50.967Z,3.23
2019-04-21T23:40:19.893Z,3.43
2019-04-21T23:42:47.143Z,3.33
2019-04-21T23:45:18.390Z,3.77
2019-04-21T23:47:57.840Z,4.10
2019-04-21T23:50:30.217Z,3.67
2019-04-21T23:52:49.683Z,3.57
2019-04-21T23:55:19.009Z,3.47
2019-04-21T23:57:50.065Z,3.53
